sim
Sign-in with your pilot id or email,
or register
Callsign
Passwort

Schedule Details

Flight Number: RYR8582 (4)
Departure: London Stansted Airport (EGSS) at 13:45
Arrival: Thessaloniki International Airport (LGTS) at 16:55
Route: Ryanair Passenger Schedule. Enter filed route here before submitting Pirep.

Weather Information
Getting current METAR information for EGSS 252120Z AUTO 18007KT 9999 NCD 09/04 Q1004
Getting current METAR information for LGTS 252120Z 00000KT CAVOK 15/12 Q1020 NOSIG

Schedule Frequency

Route Map